Time;durP1;ratioP1;P1;durP2;ratioP2;P2;SDS_P1;SDS_P2;PMS_P1;PMS_P2;Temp;Humidity;BMP_temperature;BMP_pressure;BME280_temperature;BME280_humidity;BME280_pressure;Samples;Min_cycle;Max_cycle;Signal;HPM_P1;HPM_P2
2023/10/24 00:04:12;;;;;;;9.53;3.90;;;;;;;;;;20997843;28;20241;-70
2023/10/24 00:14:15;;;;;;;8.17;4.20;;;;;;;;;;20997226;28;20241;-71
2023/10/24 00:24:17;;;;;;;10.13;3.80;;;;;;;;;;20996645;28;20202;-71
2023/10/24 00:34:19;;;;;;;6.80;3.80;;;;;;;;;;20996237;28;20256;-70
2023/10/24 00:44:21;;;;;;;9.63;4.23;;;;;;;;;;20996017;28;20286;-71
2023/10/24 00:54:24;;;;;;;8.57;4.37;;;;;;;;;;20994979;28;20231;-70
2023/10/24 01:04:26;;;;;;;11.40;3.87;;;;;;;;;;20964401;28;20289;-70
2023/10/24 01:14:28;;;;;;;9.63;4.60;;;;;;;;;;20911745;28;20736;-69
2023/10/24 01:24:31;;;;;;;7.50;4.37;;;;;;;;;;20923571;28;20600;-68
2023/10/24 01:34:33;;;;;;;6.37;4.07;;;;;;;;;;20926969;28;20231;-68
2023/10/24 01:44:36;;;;;;;5.40;4.00;;;;;;;;;;20926667;28;20248;-71
2023/10/24 01:54:38;;;;;;;8.60;4.00;;;;;;;;;;20925484;28;20235;-67
2023/10/24 02:04:41;;;;;;;5.97;3.97;;;;;;;;;;20956828;28;20641;-69
2023/10/24 02:14:44;;;;;;;8.93;4.30;;;;;;;;;;21007286;28;20238;-70
2023/10/24 02:24:46;;;;;;;6.90;4.00;;;;;;;;;;21006123;28;20544;-68
2023/10/24 02:34:52;;;;;;;5.40;3.90;;;;;;;;;;21005397;28;20318;-69
2023/10/24 02:44:54;;;;;;;6.37;4.40;;;;;;;;;;21005027;28;20208;-68
2023/10/24 02:54:56;;;;;;;6.60;4.13;;;;;;;;;;21003971;28;20597;-69
2023/10/24 03:04:58;;;;;;;8.23;4.90;;;;;;;;;;21002543;28;20236;-70
2023/10/24 03:15:01;;;;;;;9.33;5.17;;;;;;;;;;21002102;28;20280;-69
2023/10/24 03:25:04;;;;;;;7.47;5.10;;;;;;;;;;21001478;28;20295;-70
2023/10/24 03:35:06;;;;;;;7.33;5.40;;;;;;;;;;21000530;28;20241;-72
2023/10/24 03:45:08;;;;;;;9.13;5.40;;;;;;;;;;20998910;28;20634;-72
2023/10/24 03:55:11;;;;;;;7.60;4.83;;;;;;;;;;20999209;28;20245;-72
2023/10/24 04:05:13;;;;;;;5.70;4.30;;;;;;;;;;20997636;28;20241;-72
2023/10/24 04:15:15;;;;;;;7.50;4.70;;;;;;;;;;20997174;28;20236;-73
2023/10/24 04:25:18;;;;;;;6.13;4.33;;;;;;;;;;20996868;28;20293;-72
2023/10/24 04:35:20;;;;;;;7.90;5.30;;;;;;;;;;20995960;28;20250;-72
2023/10/24 04:45:22;;;;;;;8.87;4.40;;;;;;;;;;20995710;28;20209;-68
2023/10/24 04:55:24;;;;;;;7.43;4.70;;;;;;;;;;20977281;28;20231;-68
2023/10/24 05:05:29;;;;;;;7.23;4.40;;;;;;;;;;20994182;28;20289;-71
2023/10/24 05:15:31;;;;;;;9.23;5.33;;;;;;;;;;20994039;28;20334;-66
2023/10/24 05:25:34;;;;;;;6.23;4.93;;;;;;;;;;20993683;28;20213;-66
2023/10/24 05:35:36;;;;;;;8.67;5.07;;;;;;;;;;20975419;28;20237;-68
2023/10/24 05:45:38;;;;;;;12.60;5.60;;;;;;;;;;20992734;28;20376;-68
2023/10/24 05:55:40;;;;;;;11.90;6.67;;;;;;;;;;20993149;28;20254;-67
2023/10/24 06:05:42;;;;;;;10.03;5.67;;;;;;;;;;20994956;28;20736;-65
2023/10/24 06:15:45;;;;;;;14.00;5.37;;;;;;;;;;21005985;28;20258;-66
2023/10/24 06:25:47;;;;;;;10.80;6.00;;;;;;;;;;21005785;28;20229;-66
2023/10/24 06:35:49;;;;;;;8.77;5.57;;;;;;;;;;21002989;28;20284;-68
2023/10/24 06:45:51;;;;;;;10.90;5.73;;;;;;;;;;21003115;28;20250;-68
2023/10/24 06:55:59;;;;;;;9.30;5.73;;;;;;;;;;21002772;28;20695;-68
2023/10/24 07:06:01;;;;;;;29.30;15.53;;;;;;;;;;21001868;28;20639;-68
2023/10/24 07:16:16;;;;;;;18.23;8.77;;;;;;;;;;20999833;28;20238;-67
2023/10/24 07:26:19;;;;;;;247.20;108.37;;;;;;;;;;21000957;28;20599;-69
2023/10/24 07:36:21;;;;;;;51.60;26.23;;;;;;;;;;20999956;28;20235;-67
2023/10/24 07:46:24;;;;;;;33.90;16.30;;;;;;;;;;20999145;28;20295;-69
2023/10/24 07:56:26;;;;;;;12.23;7.43;;;;;;;;;;20980588;28;20243;-68
2023/10/24 08:06:29;;;;;;;12.73;6.70;;;;;;;;;;20997316;28;20235;-68
2023/10/24 08:16:31;;;;;;;23.93;12.00;;;;;;;;;;20996899;28;20249;-68
2023/10/24 08:26:34;;;;;;;36.83;15.30;;;;;;;;;;20995690;28;20203;-69
2023/10/24 08:36:36;;;;;;;9.87;6.43;;;;;;;;;;20993589;28;20235;-68
2023/10/24 08:46:38;;;;;;;10.37;6.40;;;;;;;;;;20975946;28;20222;-69
2023/10/24 08:56:41;;;;;;;8.93;5.93;;;;;;;;;;20976344;28;20690;-69
2023/10/24 09:06:46;;;;;;;76.37;33.30;;;;;;;;;;20993815;28;20648;-68
2023/10/24 09:17:17;;;;;;;12.27;6.57;;;;;;;;;;20992353;28;20326;-68
2023/10/24 09:27:27;;;;;;;16.43;7.37;;;;;;;;;;20990725;28;20211;-68
2023/10/24 09:37:29;;;;;;;13.87;8.07;;;;;;;;;;20992036;28;20231;-68
2023/10/24 09:47:32;;;;;;;57.73;26.83;;;;;;;;;;21006739;28;20220;-68
2023/10/24 09:57:35;;;;;;;81.27;36.13;;;;;;;;;;21007832;28;20242;-69
2023/10/24 10:07:38;;;;;;;70.73;30.67;;;;;;;;;;21006019;28;20245;-68
2023/10/24 10:17:59;;;;;;;51.07;24.43;;;;;;;;;;21004857;28;20231;-68
2023/10/24 10:28:18;;;;;;;36.33;17.77;;;;;;;;;;20987040;28;20214;-68
2023/10/24 10:38:38;;;;;;;26.93;13.40;;;;;;;;;;21004941;28;20318;-68
2023/10/24 10:48:43;;;;;;;15.87;9.33;;;;;;;;;;21003917;28;20262;-68
2023/10/24 10:58:51;;;;;;;11.73;8.20;;;;;;;;;;20984651;28;20230;-68
2023/10/24 11:09:07;;;;;;;13.50;8.47;;;;;;;;;;21002076;28;20257;-66
2023/10/24 11:19:18;;;;;;;19.60;8.63;;;;;;;;;;21000637;28;20246;-67
2023/10/24 11:29:20;;;;;;;13.07;8.10;;;;;;;;;;20999962;28;20654;-67
2023/10/24 11:39:22;;;;;;;12.33;7.90;;;;;;;;;;20998314;28;20610;-67
2023/10/24 11:49:34;;;;;;;14.93;9.43;;;;;;;;;;20998113;28;20298;-68
2023/10/24 11:59:37;;;;;;;15.10;9.80;;;;;;;;;;20997192;28;20238;-68
2023/10/24 12:09:39;;;;;;;11.80;8.87;;;;;;;;;;20996041;28;20238;-68
2023/10/24 12:19:41;;;;;;;13.07;7.57;;;;;;;;;;20977642;28;20326;-68
2023/10/24 12:29:44;;;;;;;10.83;6.83;;;;;;;;;;20995158;28;20238;-68
2023/10/24 12:39:46;;;;;;;11.00;7.27;;;;;;;;;;20995014;28;20231;-69
2023/10/24 12:49:49;;;;;;;18.00;7.30;;;;;;;;;;20994538;28;20290;-68
2023/10/24 12:59:52;;;;;;;13.77;6.90;;;;;;;;;;20992421;28;20273;-68
2023/10/24 13:09:54;;;;;;;9.50;6.63;;;;;;;;;;20976272;28;20233;-66
2023/10/24 13:19:57;;;;;;;11.87;6.27;;;;;;;;;;20866917;28;20236;-64
2023/10/24 13:29:59;;;;;;;8.87;6.63;;;;;;;;;;20844029;28;20271;-64
2023/10/24 13:40:07;;;;;;;12.17;6.63;;;;;;;;;;20844012;28;20236;-69
2023/10/24 13:50:09;;;;;;;9.67;5.90;;;;;;;;;;20915748;28;20241;-61
2023/10/24 14:00:12;;;;;;;9.00;6.33;;;;;;;;;;20945298;28;20237;-65
2023/10/24 14:10:14;;;;;;;4.40;3.20;;;;;;;;;;21001896;28;20239;-65
2023/10/24 14:20:17;;;;;;;5.30;3.93;;;;;;;;;;20998460;28;20288;-68
2023/10/24 14:30:20;;;;;;;5.07;3.70;;;;;;;;;;21004582;28;20245;-68
2023/10/24 14:40:22;;;;;;;6.70;3.23;;;;;;;;;;20986679;28;20331;-70
2023/10/24 14:50:25;;;;;;;3.53;2.83;;;;;;;;;;20967292;28;20647;-71
2023/10/24 15:00:28;;;;;;;4.80;3.70;;;;;;;;;;20974553;28;20231;-72
2023/10/24 15:10:30;;;;;;;3.90;3.07;;;;;;;;;;20974977;28;20238;-70
2023/10/24 15:20:34;;;;;;;8.13;4.37;;;;;;;;;;20920665;28;20703;-72
2023/10/24 15:30:40;;;;;;;5.17;3.37;;;;;;;;;;20917922;28;20212;-70
2023/10/24 15:40:42;;;;;;;9.93;4.30;;;;;;;;;;20989238;28;20238;-75
2023/10/24 15:50:44;;;;;;;3.90;3.30;;;;;;;;;;21082574;28;20264;-73
2023/10/24 16:00:46;;;;;;;4.57;3.50;;;;;;;;;;20957950;28;20243;-73
2023/10/24 16:10:49;;;;;;;5.97;4.27;;;;;;;;;;20915474;28;20677;-70
2023/10/24 16:20:55;;;;;;;5.10;4.30;;;;;;;;;;20914306;28;20293;-66
2023/10/24 16:30:57;;;;;;;11.80;4.90;;;;;;;;;;20912107;28;20213;-67
2023/10/24 16:41:00;;;;;;;10.67;4.47;;;;;;;;;;20913385;28;20327;-63
2023/10/24 16:51:03;;;;;;;6.87;5.50;;;;;;;;;;20912455;28;20211;-70
2023/10/24 17:01:05;;;;;;;13.90;6.37;;;;;;;;;;20983493;28;20233;-70
2023/10/24 17:11:07;;;;;;;17.97;8.73;;;;;;;;;;20996387;28;20592;-71
2023/10/24 17:21:10;;;;;;;8.77;6.03;;;;;;;;;;20994353;28;20269;-67
2023/10/24 17:31:12;;;;;;;10.60;7.30;;;;;;;;;;20994030;28;20298;-67
2023/10/24 17:41:15;;;;;;;7.30;5.73;;;;;;;;;;20993914;28;20262;-66
2023/10/24 17:51:17;;;;;;;8.93;5.80;;;;;;;;;;20993234;28;20203;-70
2023/10/24 18:01:19;;;;;;;6.07;5.23;;;;;;;;;;20995792;28;20249;-69
2023/10/24 18:11:21;;;;;;;8.70;6.30;;;;;;;;;;20961086;28;20540;-70
2023/10/24 18:21:23;;;;;;;7.50;6.17;;;;;;;;;;20923753;28;20652;-71
2023/10/24 18:31:26;;;;;;;7.03;6.20;;;;;;;;;;20922878;28;20295;-70
2023/10/24 18:41:28;;;;;;;8.27;7.17;;;;;;;;;;20918365;28;20456;-70
2023/10/24 18:51:30;;;;;;;3.80;3.40;;;;;;;;;;20921073;28;20291;-70
2023/10/24 19:01:32;;;;;;;3.33;3.03;;;;;;;;;;20995286;28;20245;-70
2023/10/24 19:11:35;;;;;;;5.00;3.00;;;;;;;;;;21002911;28;20203;-71
2023/10/24 19:21:37;;;;;;;5.70;4.60;;;;;;;;;;21001433;28;20702;-72
2023/10/24 19:31:39;;;;;;;4.57;2.97;;;;;;;;;;21001407;28;20203;-73
2023/10/24 19:41:42;;;;;;;4.93;3.40;;;;;;;;;;21000558;28;20313;-71
2023/10/24 19:51:44;;;;;;;6.37;5.43;;;;;;;;;;20999438;28;20211;-69
2023/10/24 20:01:47;;;;;;;13.80;9.13;;;;;;;;;;20998640;28;20329;-70
2023/10/24 20:11:50;;;;;;;6.70;4.40;;;;;;;;;;20996651;28;20619;-70
2023/10/24 20:22:12;;;;;;;5.73;4.90;;;;;;;;;;20996928;28;20279;-70
2023/10/24 20:32:14;;;;;;;7.40;5.10;;;;;;;;;;20996846;28;20203;-72
2023/10/24 20:42:19;;;;;;;8.23;5.17;;;;;;;;;;20996680;28;20247;-71
2023/10/24 20:52:22;;;;;;;7.50;5.60;;;;;;;;;;20996923;28;20275;-71
2023/10/24 21:02:24;;;;;;;6.93;5.23;;;;;;;;;;20995194;28;20243;-73
2023/10/24 21:12:26;;;;;;;5.73;5.13;;;;;;;;;;20994911;28;20309;-71
2023/10/24 21:22:29;;;;;;;9.03;5.90;;;;;;;;;;20993859;28;20293;-70
2023/10/24 21:32:31;;;;;;;7.23;5.87;;;;;;;;;;20993583;28;20279;-70
2023/10/24 21:42:33;;;;;;;8.53;6.23;;;;;;;;;;21007235;28;20319;-67
2023/10/24 21:52:35;;;;;;;9.20;6.60;;;;;;;;;;21009297;28;20612;-68
2023/10/24 22:02:38;;;;;;;10.80;6.43;;;;;;;;;;21008041;28;20234;-68
2023/10/24 22:12:41;;;;;;;7.53;6.50;;;;;;;;;;21007676;28;20211;-68
2023/10/24 22:22:43;;;;;;;8.87;7.17;;;;;;;;;;21007592;28;20239;-68
2023/10/24 22:32:45;;;;;;;9.07;6.97;;;;;;;;;;21006333;28;20211;-67
2023/10/24 22:42:47;;;;;;;8.37;6.77;;;;;;;;;;21005430;28;20654;-68
2023/10/24 22:52:50;;;;;;;7.83;6.23;;;;;;;;;;21005052;28;20207;-68
2023/10/24 23:02:52;;;;;;;9.77;6.27;;;;;;;;;;21003873;28;20595;-68
2023/10/24 23:12:55;;;;;;;8.40;7.20;;;;;;;;;;21003125;28;20207;-68
2023/10/24 23:22:57;;;;;;;10.17;7.03;;;;;;;;;;21002478;28;20228;-68
2023/10/24 23:32:59;;;;;;;9.23;7.43;;;;;;;;;;21001391;28;20210;-68
2023/10/24 23:43:01;;;;;;;10.83;7.27;;;;;;;;;;21000624;28;20329;-64
2023/10/24 23:53:03;;;;;;;7.70;6.90;;;;;;;;;;21000103;28;20615;-68
